KIDA/IDA METAR and TAF weather

Enter ICAO airport designator
Station Type Date Time Source
KIDA METAR 2019/10/15 03:53 UTC NOAA

KIDA 150353Z AUTO 19009KT 10SM CLR 10/M03 A3008 RMK AO2 SLP181 T01001033


Station Type Date Time Source
KIDA Decoded METAR 2019/10/15 03:53 UTC NOAA

IDAHO FALLS REGIONAL AIRPORT, ID, United States (KIDA) 43-31N 112-04W 1453M
Oct 14, 2019 - 11:53 PM EDT / 2019.10.15 0353 UTC
Wind: from the S (190 degrees) at 10 MPH (9 KT):0
Visibility: 10 mile(s):0
Sky conditions: clear
Temperature: 50.0 F (10.0 C)
Dew Point: 26.1 F (-3.3 C)
Relative Humidity: 39%
Pressure (altimeter): 30.08 in. Hg (1018 hPa)
ob: KIDA 150353Z AUTO 19009KT 10SM CLR 10/M03 A3008 RMK AO2 SLP181 T01001033
cycle: 4

Station Type Date Time Source
KIDA TAF 2019/10/14 18:24 UTC NOAA

TAF KIDA 141723Z 1418/1518 21015KT P6SM FEW200
FM141900 22015G25KT P6SM FEW200
FM150100 19011KT P6SM FEW200
FM150600 VRB06KT P6SM FEW200

Example: see airport list